Time;durP1;ratioP1;P1;durP2;ratioP2;P2;SDS_P1;SDS_P2;PMS_P1;PMS_P2;Temp;Humidity;BMP_temperature;BMP_pressure;BME280_temperature;BME280_humidity;BME280_pressure;Samples;Min_cycle;Max_cycle;Signal;HPM_P1;HPM_P2
2024/03/29 00:00:25;;;;;;;14.60;1.25;;;;;;;-146.27;60.84;45908.72;5083587;28;20020;-75
2024/03/29 00:02:50;;;;;;;5.47;1.10;;;;;;;-146.27;60.25;45892.78;5082876;28;20054;-75
2024/03/29 00:05:15;;;;;;;4.63;1.52;;;;;;;-146.27;60.29;45950.50;5089585;28;20059;-75
2024/03/29 00:07:41;;;;;;;3.75;1.00;;;;;;;-146.27;61.73;45968.41;5071494;28;20106;-73
2024/03/29 00:10:06;;;;;;;5.22;1.30;;;;;;;-146.27;61.33;45922.63;5091276;28;20133;-74
2024/03/29 00:12:32;;;;;;;4.60;0.82;;;;;;;-146.27;60.00;45868.91;5085183;28;20382;-74
2024/03/29 00:14:57;;;;;;;4.97;1.70;;;;;;;-146.27;61.45;45946.53;5085392;28;20027;-74
2024/03/29 00:17:22;;;;;;;5.28;1.23;;;;;;;-146.27;60.53;45934.59;5079500;28;20024;-74
2024/03/29 00:19:48;;;;;;;6.93;1.02;;;;;;;-146.27;61.07;45956.47;5093073;28;20395;-74
2024/03/29 00:22:13;;;;;;;3.72;1.30;;;;;;;-146.27;61.06;45932.59;5087392;28;20395;-71
2024/03/29 00:24:38;;;;;;;10.00;1.83;;;;;;;-146.27;60.09;45924.63;5085864;28;20543;-71
2024/03/29 00:27:04;;;;;;;5.70;1.35;;;;;;;-146.27;60.65;45904.72;5077312;28;20048;-72
2024/03/29 00:29:30;;;;;;;4.95;0.80;;;;;;;-146.27;59.95;45906.72;5072801;28;20035;-72
2024/03/29 00:31:55;;;;;;;2.58;0.77;;;;;;;-146.27;60.73;45990.31;5079915;28;20020;-72
2024/03/29 00:34:21;;;;;;;6.90;1.20;;;;;;;-146.27;60.34;45942.53;5080714;28;20392;-72
2024/03/29 00:36:47;;;;;;;5.22;1.02;;;;;;;-146.27;60.42;45954.50;5087663;28;20024;-72
2024/03/29 00:39:12;;;;;;;4.47;1.08;;;;;;;-146.27;60.08;45936.56;5088005;28;20035;-72
2024/03/29 00:41:37;;;;;;;5.28;1.15;;;;;;;-146.27;59.98;45958.47;5080180;28;20035;-72
2024/03/29 00:44:03;;;;;;;6.38;1.05;;;;;;;-146.27;60.21;45970.41;5081381;28;20078;-72
2024/03/29 00:46:28;;;;;;;6.50;0.90;;;;;;;-146.27;60.88;45994.31;5082054;28;20036;-71
2024/03/29 00:48:54;;;;;;;8.35;1.15;;;;;;;-146.27;59.86;45940.56;5090970;28;20031;-72
2024/03/29 00:51:19;;;;;;;6.18;1.23;;;;;;;-146.27;59.70;45950.50;5091792;28;20144;-73
2024/03/29 00:53:45;;;;;;;8.80;0.90;;;;;;;-146.27;59.89;45980.38;5086791;28;20083;-73
2024/03/29 00:56:10;;;;;;;6.40;1.15;;;;;;;-146.27;59.47;45960.47;5090050;28;20044;-73
2024/03/29 00:58:36;;;;;;;6.05;1.00;;;;;;;-146.27;59.42;45962.44;5090306;28;20058;-71
2024/03/29 01:01:02;;;;;;;11.75;1.38;;;;;;;-146.27;59.06;45934.59;5090074;28;20019;-72
2024/03/29 01:03:31;;;;;;;13.57;1.45;;;;;;;-146.27;58.30;45912.69;5082287;28;20111;-72
2024/03/29 01:05:56;;;;;;;6.60;1.10;;;;;;;-146.27;58.33;45938.56;5077736;28;20036;-73
2024/03/29 01:08:23;;;;;;;9.90;1.40;;;;;;;-146.27;58.87;45954.50;5086503;28;20059;-72
2024/03/29 01:10:49;;;;;;;4.03;0.85;;;;;;;-146.27;58.88;45950.50;5082078;28;20043;-73
2024/03/29 01:13:14;;;;;;;7.05;1.05;;;;;;;-146.27;59.30;45954.50;5079323;28;20116;-70
2024/03/29 01:15:40;;;;;;;8.48;1.15;;;;;;;-146.27;58.86;45916.66;5088517;28;20055;-73
2024/03/29 01:18:05;;;;;;;10.38;1.10;;;;;;;-146.27;58.55;45938.56;5085801;28;20027;-71
2024/03/29 01:20:31;;;;;;;5.47;0.90;;;;;;;-146.27;58.28;45956.47;5088993;28;20101;-72
2024/03/29 01:22:57;;;;;;;4.13;1.17;;;;;;;-146.27;58.54;45946.53;5081873;28;20025;-72
2024/03/29 01:25:24;;;;;;;7.57;1.23;;;;;;;-146.27;58.36;45916.66;5078954;28;20032;-72
2024/03/29 01:27:49;;;;;;;4.22;1.08;;;;;;;-146.27;58.11;45934.59;5083604;28;20044;-73
2024/03/29 01:30:15;;;;;;;7.65;1.05;;;;;;;-146.27;57.94;45914.69;5088409;28;20031;-71
2024/03/29 01:32:40;;;;;;;5.43;1.10;;;;;;;-146.27;57.22;45888.81;5087242;28;20052;-75
2024/03/29 01:35:06;;;;;;;5.38;1.20;;;;;;;-146.27;57.21;45922.63;5087667;28;20085;-74
2024/03/29 01:37:32;;;;;;;8.05;0.98;;;;;;;-146.27;57.34;45910.69;5083138;28;20456;-73
2024/03/29 01:39:57;;;;;;;4.57;0.95;;;;;;;-146.27;58.30;45938.56;5089201;28;20028;-74
2024/03/29 01:42:23;;;;;;;7.80;1.58;;;;;;;-146.27;57.96;45922.63;5090353;28;20074;-74
2024/03/29 01:44:48;;;;;;;4.90;1.13;;;;;;;-146.27;57.95;45918.66;5098864;28;20023;-74
2024/03/29 01:47:14;;;;;;;6.60;0.85;;;;;;;-146.27;57.60;45904.72;5072618;28;20101;-74
2024/03/29 01:49:40;;;;;;;4.68;1.17;;;;;;;-146.27;57.60;45914.69;5090633;28;20028;-74
2024/03/29 01:52:06;;;;;;;7.43;1.33;;;;;;;-146.27;57.59;45948.53;5087277;28;20028;-74
2024/03/29 01:54:32;;;;;;;8.20;1.00;;;;;;;-146.27;57.75;45946.53;5080757;28;20058;-74
2024/03/29 01:56:58;;;;;;;7.82;1.33;;;;;;;-146.27;58.24;45936.56;5100320;28;20020;-74
2024/03/29 01:59:25;;;;;;;5.78;2.05;;;;;;;-146.27;58.14;45942.53;5086151;28;20040;-74
2024/03/29 02:01:50;;;;;;;9.40;1.23;;;;;;;-146.27;56.96;45908.72;5086307;28;20056;-76
2024/03/29 02:04:16;;;;;;;3.85;0.80;;;;;;;-146.27;56.18;45914.69;5085913;28;20574;-75
2024/03/29 02:06:41;;;;;;;6.53;0.98;;;;;;;-146.27;56.71;45942.53;5083075;28;20596;-75
2024/03/29 02:09:07;;;;;;;6.28;0.88;;;;;;;-146.27;57.46;45932.59;5082681;28;20107;-76
2024/03/29 02:11:34;;;;;;;6.38;1.00;;;;;;;-146.27;57.54;46002.25;5084029;28;20085;-75
2024/03/29 02:14:00;;;;;;;4.38;1.13;;;;;;;-146.27;56.95;45918.66;5080652;28;20020;-75
2024/03/29 02:16:26;;;;;;;4.85;0.88;;;;;;;-146.27;56.99;45968.41;5087371;28;20024;-75
2024/03/29 02:18:51;;;;;;;3.80;1.05;;;;;;;-146.27;56.36;45946.53;5091290;28;20020;-75
2024/03/29 02:21:17;;;;;;;2.55;1.05;;;;;;;-146.27;56.98;45986.34;5083531;28;20024;-75
2024/03/29 02:23:50;;;;;;;3.28;0.90;;;;;;;-146.27;56.79;45956.47;5098872;28;20636;-76
2024/03/29 02:26:16;;;;;;;7.07;1.05;;;;;;;-146.27;57.14;45972.41;5077470;28;20040;-76
2024/03/29 02:28:41;;;;;;;8.57;0.80;;;;;;;-146.27;56.24;45934.59;5093132;28;20082;-76
2024/03/29 02:31:08;;;;;;;6.70;1.50;;;;;;;-146.27;55.71;45946.53;5083024;28;20017;-76
2024/03/29 02:33:33;;;;;;;6.50;1.27;;;;;;;-146.27;56.74;45946.53;5082554;28;20043;-76
2024/03/29 02:35:58;;;;;;;6.72;1.30;;;;;;;-146.27;58.17;45984.34;5077474;28;20020;-75
2024/03/29 02:38:24;;;;;;;5.70;0.65;;;;;;;-146.27;57.35;45942.53;5093899;28;20085;-75
2024/03/29 02:40:49;;;;;;;4.13;1.10;;;;;;;-146.27;57.75;46032.13;5086733;28;20183;-75
2024/03/29 02:43:15;;;;;;;10.48;2.55;;;;;;;-146.27;57.18;45964.44;5097162;28;20058;-72
2024/03/29 02:45:40;;;;;;;6.07;1.08;;;;;;;-146.27;56.43;45938.56;5082133;28;20358;-71
2024/03/29 02:48:06;;;;;;;11.95;1.15;;;;;;;-146.27;56.45;45930.59;5088615;28;20626;-70
2024/03/29 02:50:31;;;;;;;4.47;0.90;;;;;;;-146.27;56.36;45986.34;5090732;28;20028;-71
2024/03/29 02:52:58;;;;;;;6.60;0.90;;;;;;;-146.27;57.02;45958.47;5096321;28;20379;-72
2024/03/29 02:55:23;;;;;;;3.53;1.10;;;;;;;-146.27;56.68;45962.44;5092133;28;20190;-71
2024/03/29 02:57:49;;;;;;;4.10;0.82;;;;;;;-146.27;55.84;45928.63;5101801;28;20424;-71
2024/03/29 03:00:14;;;;;;;6.05;2.33;;;;;;;-146.27;56.48;45942.53;5090221;28;20492;-72
2024/03/29 03:02:40;;;;;;;6.22;1.00;;;;;;;-146.27;56.21;45974.41;5080219;28;20488;-71
2024/03/29 03:05:07;;;;;;;4.00;1.15;;;;;;;-146.27;56.91;45972.41;5093488;28;20024;-72
2024/03/29 03:13:01;;;;;;;3.75;0.70;;;;;;;-146.27;55.55;45934.59;5076389;28;20169;-72
2024/03/29 03:15:26;;;;;;;2.63;1.02;;;;;;;-146.27;56.18;45974.41;5084850;28;20543;-72
2024/03/29 03:17:52;;;;;;;5.95;1.02;;;;;;;-146.27;56.53;45988.31;5106621;28;20020;-72
2024/03/29 03:20:17;;;;;;;7.32;0.82;;;;;;;-146.27;56.99;45994.31;5083704;28;20044;-71
2024/03/29 03:22:43;;;;;;;6.70;1.15;;;;;;;-146.27;56.54;46008.22;5101658;28;20027;-71
2024/03/29 03:25:08;;;;;;;2.60;0.70;;;;;;;-146.27;56.14;45978.38;5073719;28;20032;-73
2024/03/29 03:27:33;;;;;;;3.25;0.63;;;;;;;-146.27;56.49;45994.31;5082901;28;20104;-69
2024/03/29 03:29:59;;;;;;;6.68;0.95;;;;;;;-146.27;57.21;46040.09;5078666;28;20476;-70
2024/03/29 03:32:24;;;;;;;6.53;1.63;;;;;;;-146.27;56.13;45960.47;5086425;28;20507;-72
2024/03/29 03:34:50;;;;;;;4.40;0.60;;;;;;;-146.27;56.88;45998.28;5087209;28;20024;-72
2024/03/29 03:37:15;;;;;;;2.03;0.60;;;;;;;-146.27;56.32;46012.22;5090775;28;20377;-72
2024/03/29 03:39:41;;;;;;;4.53;0.60;;;;;;;-146.27;56.98;46002.25;5091243;28;20525;-71
2024/03/29 03:42:06;;;;;;;2.25;0.50;;;;;;;-146.27;57.12;46030.13;5091243;28;20656;-71
2024/03/29 03:44:31;;;;;;;4.25;0.85;;;;;;;-146.27;56.83;45990.31;5078329;28;20480;-72
2024/03/29 03:46:57;;;;;;;5.35;1.70;;;;;;;-146.27;56.68;45990.31;5089305;28;20127;-73
2024/03/29 03:49:22;;;;;;;1.70;0.63;;;;;;;-146.27;56.82;46016.19;5090709;28;20081;-71
2024/03/29 03:51:47;;;;;;;6.00;1.15;;;;;;;-146.27;56.85;45990.31;5087039;28;20074;-73
2024/03/29 03:54:13;;;;;;;1.95;0.50;;;;;;;-146.27;56.67;46002.25;5081304;28;20027;-72
2024/03/29 03:56:38;;;;;;;2.45;0.82;;;;;;;-146.27;55.50;45946.53;5085614;28;20377;-72
2024/03/29 03:59:04;;;;;;;1.65;0.73;;;;;;;-146.27;55.81;45914.69;5087429;28;20024;-73
2024/03/29 04:01:29;;;;;;;3.55;0.80;;;;;;;-146.27;56.49;45974.41;5089414;28;20107;-71
2024/03/29 04:03:55;;;;;;;2.75;0.70;;;;;;;-146.27;55.93;45954.50;5091066;28;20027;-72
2024/03/29 04:06:20;;;;;;;3.45;0.70;;;;;;;-146.27;56.01;45952.50;5092282;28;20032;-71
2024/03/29 04:08:46;;;;;;;2.58;0.70;;;;;;;-146.27;56.18;45974.41;5082227;28;20028;-71
2024/03/29 04:11:11;;;;;;;1.10;0.60;;;;;;;-146.27;55.61;45950.50;5085278;28;20020;-73
2024/03/29 04:13:38;;;;;;;1.38;0.50;;;;;;;-146.27;56.61;45976.38;5095141;28;20479;-72
2024/03/29 04:16:05;;;;;;;2.50;0.88;;;;;;;-146.27;55.57;45976.38;5079152;28;20028;-72
2024/03/29 04:18:31;;;;;;;5.22;0.70;;;;;;;-146.27;57.72;46030.13;5076760;28;20102;-72
2024/03/29 04:21:03;;;;;;;2.72;0.60;;;;;;;-146.27;56.61;45958.47;5080308;28;20032;-72
2024/03/29 04:23:29;;;;;;;3.67;0.50;;;;;;;-146.27;56.97;45970.41;5070315;28;20023;-73
2024/03/29 04:25:56;;;;;;;1.52;0.60;;;;;;;-146.27;56.70;45958.47;5070188;28;20101;-72
2024/03/29 04:28:21;;;;;;;3.13;0.40;;;;;;;-146.27;57.93;45982.34;5089512;28;20399;-72
2024/03/29 04:30:51;;;;;;;3.35;0.30;;;;;;;-146.27;57.48;45994.31;5078017;28;20028;-71
2024/03/29 04:33:16;;;;;;;3.78;0.60;;;;;;;-146.27;57.20;45978.38;5086016;28;20032;-72
2024/03/29 04:35:54;;;;;;;1.73;0.38;;;;;;;-146.27;57.42;46014.22;5078724;28;20027;-73
2024/03/29 04:38:20;;;;;;;5.05;0.50;;;;;;;-146.27;57.21;45944.53;5077132;28;20028;-72
2024/03/29 04:40:45;;;;;;;2.38;0.40;;;;;;;-146.27;57.53;45964.44;5078493;28;20490;-72
2024/03/29 04:43:10;;;;;;;1.88;0.70;;;;;;;-146.27;57.69;45980.38;5097635;28;20024;-72
2024/03/29 04:45:36;;;;;;;2.22;0.45;;;;;;;-146.27;57.61;45952.50;5083546;28;20103;-72
2024/03/29 04:48:01;;;;;;;2.40;0.70;;;;;;;-146.27;57.79;45938.56;5087105;28;20032;-72
2024/03/29 04:50:27;;;;;;;1.40;0.50;;;;;;;-146.27;58.43;45962.44;5077306;28;20365;-71
2024/03/29 04:52:52;;;;;;;1.58;0.60;;;;;;;-146.27;59.08;45986.34;5075342;28;20024;-73
2024/03/29 04:55:17;;;;;;;0.80;0.50;;;;;;;-146.27;59.53;45974.41;5093280;28;20015;-72
2024/03/29 04:57:43;;;;;;;3.38;0.55;;;;;;;-146.27;60.55;45950.50;5090674;28;20055;-72
2024/03/29 05:00:09;;;;;;;0.35;0.20;;;;;;;-146.27;61.35;45972.41;5087832;28;20644;-72
2024/03/29 05:02:34;;;;;;;2.65;0.65;;;;;;;-146.27;61.24;45992.31;5079624;28;20040;-75
2024/03/29 05:05:00;;;;;;;1.80;0.30;;;;;;;-146.27;61.11;45928.63;5080258;28;20017;-76
2024/03/29 05:07:25;;;;;;;0.98;0.40;;;;;;;-146.27;61.47;45944.53;5086779;28;20556;-74
2024/03/29 05:09:50;;;;;;;0.88;0.50;;;;;;;-146.27;61.73;45962.44;5092555;28;20693;-74
2024/03/29 05:12:16;;;;;;;0.63;0.40;;;;;;;-146.27;61.60;45952.50;5072970;28;20073;-75
2024/03/29 05:14:41;;;;;;;2.25;0.63;;;;;;;-146.27;62.46;45936.56;5086909;28;20213;-75
2024/03/29 05:17:07;;;;;;;1.08;0.32;;;;;;;-146.27;62.37;45932.59;5078430;28;20080;-75
2024/03/29 05:19:32;;;;;;;1.05;0.40;;;;;;;-146.27;62.25;45938.56;5089370;28;20020;-76
2024/03/29 05:21:58;;;;;;;0.43;0.40;;;;;;;-146.27;63.02;45914.69;5082484;28;20024;-76
2024/03/29 05:24:23;;;;;;;3.13;0.93;;;;;;;-146.27;64.06;45966.44;5089597;28;20580;-75
2024/03/29 05:26:48;;;;;;;1.67;0.75;;;;;;;-146.27;62.77;45932.59;5088120;28;20605;-75
2024/03/29 05:29:14;;;;;;;2.50;0.40;;;;;;;-146.27;63.73;45948.53;5097504;28;20065;-75
2024/03/29 05:31:39;;;;;;;2.10;0.57;;;;;;;-146.27;63.51;45920.66;5087350;28;20048;-75
2024/03/29 05:34:04;;;;;;;0.73;0.30;;;;;;;-146.27;64.59;45940.56;5085934;28;20024;-75
2024/03/29 05:36:30;;;;;;;1.52;0.45;;;;;;;-146.27;64.51;45948.53;5100522;28;20039;-75
2024/03/29 05:38:56;;;;;;;2.53;0.63;;;;;;;-146.27;64.33;45958.47;5093349;28;20100;-75
2024/03/29 05:41:21;;;;;;;0.70;0.40;;;;;;;-146.27;64.69;45970.41;5094829;28;20567;-76
2024/03/29 05:43:47;;;;;;;1.35;0.38;;;;;;;-146.27;65.51;45994.31;5096289;28;20027;-76
2024/03/29 05:46:15;;;;;;;4.00;0.30;;;;;;;-146.27;64.80;45956.47;5098944;28;20032;-76
2024/03/29 05:48:40;;;;;;;3.97;0.57;;;;;;;-146.27;66.82;46000.28;5091631;28;20055;-75
2024/03/29 05:51:06;;;;;;;0.82;0.25;;;;;;;-146.27;66.42;45946.53;5093773;28;20114;-75
2024/03/29 05:53:31;;;;;;;2.47;0.50;;;;;;;-146.27;67.46;45942.53;5090014;28;20024;-75
2024/03/29 05:55:56;;;;;;;1.05;0.40;;;;;;;-146.27;67.20;45926.63;5085985;28;20019;-74
2024/03/29 05:58:22;;;;;;;2.83;0.68;;;;;;;-146.27;68.04;45930.59;5104223;28;20158;-75
2024/03/29 06:00:48;;;;;;;2.08;0.50;;;;;;;-146.27;68.52;45926.63;5082519;28;20028;-75
2024/03/29 06:03:14;;;;;;;2.35;0.90;;;;;;;-146.27;67.85;45886.81;5094723;28;20058;-75
2024/03/29 06:05:40;;;;;;;3.33;0.80;;;;;;;-146.27;68.79;45898.75;5091987;28;20020;-76
2024/03/29 06:08:05;;;;;;;2.88;0.80;;;;;;;-146.27;69.61;45908.72;5091152;28;20496;-75
2024/03/29 06:10:31;;;;;;;0.88;0.60;;;;;;;-146.27;68.91;45862.94;5090401;28;20031;-75
2024/03/29 06:12:57;;;;;;;1.00;0.63;;;;;;;-146.27;69.70;45882.84;5093639;28;20032;-71
2024/03/29 06:18:07;;;;;;;2.63;0.60;;;;;;;-146.27;69.89;45866.91;5092761;28;20047;-71
2024/03/29 06:20:33;;;;;;;2.92;0.57;;;;;;;-146.27;70.24;45874.88;5089737;28;20150;-70
2024/03/29 06:22:59;;;;;;;2.40;0.40;;;;;;;-146.27;69.99;45870.88;5092822;28;20099;-70
2024/03/29 06:25:24;;;;;;;2.58;0.57;;;;;;;-146.27;70.51;45868.91;5088398;28;20471;-72
2024/03/29 06:27:49;;;;;;;0.98;0.63;;;;;;;-146.27;70.84;45843.03;5078571;28;20696;-71
2024/03/29 06:30:19;;;;;;;0.55;0.50;;;;;;;-146.27;70.53;45870.88;5101245;28;20399;-70
2024/03/29 06:32:45;;;;;;;1.80;0.68;;;;;;;-146.27;70.45;45862.94;5087263;28;20039;-74
2024/03/29 06:35:10;;;;;;;2.42;0.77;;;;;;;-146.27;70.99;45849.00;5080981;28;20032;-74
2024/03/29 06:37:36;;;;;;;5.40;0.75;;;;;;;-146.27;70.92;45870.88;5092380;28;20024;-75
2024/03/29 06:40:02;;;;;;;2.28;0.70;;;;;;;-146.27;71.23;45854.97;5093877;28;20099;-74
2024/03/29 06:42:28;;;;;;;2.40;0.60;;;;;;;-146.27;71.68;45829.09;5087548;28;20021;-75
2024/03/29 06:44:54;;;;;;;3.72;0.70;;;;;;;-146.27;71.93;45803.22;5093668;28;20028;-73
2024/03/29 06:47:20;;;;;;;1.17;0.60;;;;;;;-146.27;72.32;45809.19;5091648;28;20488;-75
2024/03/29 06:49:46;;;;;;;1.23;0.50;;;;;;;-146.27;72.65;45805.19;5088247;28;20028;-75
2024/03/29 06:52:12;;;;;;;2.10;0.68;;;;;;;-146.27;72.47;45793.25;5088965;28;20024;-75
2024/03/29 06:54:37;;;;;;;1.45;0.70;;;;;;;-146.27;72.06;45775.34;5088962;28;20031;-74
2024/03/29 06:57:03;;;;;;;3.55;0.73;;;;;;;-146.27;72.71;45759.44;5093767;28;20160;-75
2024/03/29 06:59:28;;;;;;;6.65;0.90;;;;;;;-146.27;72.92;45723.59;5091791;28;20055;-74
2024/03/29 07:01:54;;;;;;;1.40;0.60;;;;;;;-146.27;72.83;45745.50;5089846;28;20024;-75
2024/03/29 07:04:24;;;;;;;0.80;0.63;;;;;;;-146.27;73.04;45709.66;5088563;28;20035;-74
2024/03/29 07:06:53;;;;;;;0.45;0.43;;;;;;;-146.27;72.98;45687.78;5093216;28;20101;-74
2024/03/29 07:09:22;;;;;;;3.50;1.10;;;;;;;-146.27;73.01;45719.63;5093103;28;20388;-74
2024/03/29 07:11:50;;;;;;;2.80;1.00;;;;;;;-146.27;74.18;45701.69;5086982;28;20024;-74
2024/03/29 07:14:16;;;;;;;1.70;1.00;;;;;;;-146.27;74.75;45715.63;5091484;28;20024;-75
2024/03/29 07:16:45;;;;;;;2.70;0.88;;;;;;;-146.27;74.77;45709.66;5088672;28;20024;-74
2024/03/29 07:19:12;;;;;;;5.47;0.88;;;;;;;-146.27;73.94;45707.69;5091775;28;20093;-72
2024/03/29 07:21:39;;;;;;;4.13;1.02;;;;;;;-146.27;73.97;45709.66;5091604;28;20028;-72
2024/03/29 07:24:05;;;;;;;2.88;0.82;;;;;;;-146.27;73.81;45715.63;5088075;28;20024;-77
2024/03/29 07:26:30;;;;;;;5.82;1.02;;;;;;;-146.27;73.18;45669.84;5095516;28;20103;-77
2024/03/29 07:28:55;;;;;;;3.70;0.80;;;;;;;-146.27;72.76;45685.78;5074038;28;20020;-78
2024/03/29 07:31:21;;;;;;;4.68;1.35;;;;;;;-146.27;72.21;45675.81;5091092;28;20040;-75
2024/03/29 07:33:46;;;;;;;2.10;0.95;;;;;;;-146.27;71.34;45647.97;5093184;28;20399;-76
2024/03/29 07:36:12;;;;;;;1.52;0.77;;;;;;;-146.27;72.26;45683.78;5094679;28;20654;-74
2024/03/29 07:38:38;;;;;;;3.72;0.90;;;;;;;-146.27;72.05;45679.81;5095935;28;20077;-73
2024/03/29 07:41:06;;;;;;;1.20;0.70;;;;;;;-146.27;72.38;45719.63;5088312;28;20053;-74
2024/03/29 07:43:41;;;;;;;1.48;0.80;;;;;;;-146.27;73.77;45725.59;5091403;28;20039;-73
2024/03/29 07:46:09;;;;;;;1.60;0.80;;;;;;;-146.27;73.16;45727.56;5091313;28;20392;-75
2024/03/29 07:48:35;;;;;;;1.75;0.98;;;;;;;-146.27;72.60;45683.78;5089120;28;20051;-75
2024/03/29 07:51:01;;;;;;;2.80;1.08;;;;;;;-146.27;72.54;45681.81;5091694;28;20024;-74
2024/03/29 07:53:26;;;;;;;1.23;0.93;;;;;;;-146.27;71.67;45634.03;5094209;28;20027;-73
2024/03/29 07:55:51;;;;;;;1.42;1.00;;;;;;;-146.27;71.69;45677.81;5091100;28;20020;-77
2024/03/29 07:58:17;;;;;;;1.02;0.98;;;;;;;-146.27;71.61;45695.72;5091869;28;20119;-77
2024/03/29 08:00:43;;;;;;;1.85;1.00;;;;;;;-146.27;71.70;45699.72;5111309;28;20019;-76
2024/03/29 08:03:08;;;;;;;2.28;1.30;;;;;;;-146.27;71.12;45687.78;5087002;28;20387;-74
2024/03/29 08:05:34;;;;;;;3.97;1.33;;;;;;;-146.27;71.44;45679.81;5099110;28;20023;-74
2024/03/29 08:08:00;;;;;;;3.25;1.48;;;;;;;-146.27;71.45;45655.94;5104560;28;20129;-73
2024/03/29 08:10:25;;;;;;;2.50;1.30;;;;;;;-146.27;71.47;45659.91;5085979;28;20117;-73
2024/03/29 08:12:51;;;;;;;6.53;1.98;;;;;;;-146.27;70.39;45634.03;5096407;28;20020;-74
2024/03/29 08:15:18;;;;;;;2.80;1.40;;;;;;;-146.27;70.12;45634.03;5068709;28;20020;-74
2024/03/29 08:17:44;;;;;;;2.58;1.38;;;;;;;-146.27;70.60;45596.22;5080728;28;20050;-73
2024/03/29 08:20:10;;;;;;;2.55;1.40;;;;;;;-146.27;69.44;45604.19;5085848;28;20035;-74
2024/03/29 08:22:35;;;;;;;2.55;1.27;;;;;;;-146.27;69.11;45606.16;5088594;28;20028;-72
2024/03/29 08:25:00;;;;;;;1.83;1.17;;;;;;;-146.27;68.99;45634.03;5088120;28;20038;-75
2024/03/29 08:27:27;;;;;;;2.65;1.50;;;;;;;-146.27;68.77;45661.91;5089754;28;20430;-74
2024/03/29 08:29:53;;;;;;;2.80;1.63;;;;;;;-146.27;69.39;45711.66;5089980;28;20024;-74
2024/03/29 08:32:18;;;;;;;2.00;1.60;;;;;;;-146.27;69.39;45695.72;5092136;28;20476;-73
2024/03/29 08:34:43;;;;;;;4.20;1.30;;;;;;;-146.27;69.40;45647.97;5089767;28;20020;-73
2024/03/29 08:37:09;;;;;;;2.33;1.40;;;;;;;-146.27;69.27;45679.81;5086143;28;20043;-73
2024/03/29 08:39:37;;;;;;;2.53;1.50;;;;;;;-146.27;69.04;45689.75;5089935;28;20023;-73
2024/03/29 08:42:04;;;;;;;3.65;1.67;;;;;;;-146.27;68.75;45661.91;5090150;28;20024;-73
2024/03/29 08:44:33;;;;;;;8.27;1.90;;;;;;;-146.27;67.89;45649.94;5071634;28;20032;-72
2024/03/29 08:47:01;;;;;;;1.55;1.30;;;;;;;-146.27;69.31;45711.66;5089740;28;20024;-73
2024/03/29 08:49:26;;;;;;;2.17;1.52;;;;;;;-146.27;68.68;45687.78;5085323;28;20055;-73
2024/03/29 08:51:52;;;;;;;2.70;1.77;;;;;;;-146.27;69.55;45691.75;5091389;28;20047;-73
2024/03/29 08:54:17;;;;;;;4.68;1.77;;;;;;;-146.27;69.27;45647.97;5088853;28;20529;-73
2024/03/29 08:56:42;;;;;;;2.05;1.40;;;;;;;-146.27;69.40;45661.91;5069245;28;20528;-72
2024/03/29 08:59:09;;;;;;;3.50;1.52;;;;;;;-146.27;68.88;45612.13;5088993;28;20492;-72
2024/03/29 09:01:37;;;;;;;2.88;1.42;;;;;;;-146.27;68.77;45647.97;5088200;28;20031;-72
2024/03/29 09:04:06;;;;;;;2.08;1.17;;;;;;;-146.27;69.32;45679.81;5082910;28;20058;-73
2024/03/29 09:06:34;;;;;;;2.50;1.10;;;;;;;-146.27;68.36;45570.34;5089172;28;20111;-73
2024/03/29 09:08:59;;;;;;;2.08;1.30;;;;;;;-146.27;69.04;45604.19;5088196;28;20070;-73
2024/03/29 09:11:24;;;;;;;5.00;1.15;;;;;;;-146.27;69.70;45632.03;5089952;28;20503;-72
2024/03/29 09:13:50;;;;;;;1.77;0.80;;;;;;;-146.27;69.27;45636.03;5099191;28;20047;-72
2024/03/29 09:16:15;;;;;;;1.58;0.90;;;;;;;-146.27;69.86;45620.09;5089891;28;20036;-73
2024/03/29 09:18:41;;;;;;;3.70;1.23;;;;;;;-146.27;70.73;45600.19;5082534;28;20028;-73
2024/03/29 09:21:08;;;;;;;1.23;0.80;;;;;;;-146.27;70.45;45622.09;5089449;28;20033;-72
2024/03/29 09:23:34;;;;;;;0.95;0.57;;;;;;;-146.27;70.58;45695.72;5089222;28;20131;-73
2024/03/29 09:25:59;;;;;;;1.42;0.80;;;;;;;-146.27;70.37;45649.94;5089404;28;20062;-73
2024/03/29 09:28:25;;;;;;;1.95;0.90;;;;;;;-146.27;71.20;45661.91;5082667;28;20078;-73
2024/03/29 09:30:56;;;;;;;1.27;0.73;;;;;;;-146.27;70.59;45608.16;5100756;28;20047;-73
2024/03/29 09:33:22;;;;;;;2.20;0.80;;;;;;;-146.27;71.06;45640.00;5088886;28;20024;-73
2024/03/29 09:35:47;;;;;;;0.75;0.70;;;;;;;-146.27;71.80;45703.69;5094095;28;20013;-72
2024/03/29 09:38:13;;;;;;;0.80;0.70;;;;;;;-146.27;70.13;45576.31;5089054;28;20556;-73
2024/03/29 09:40:38;;;;;;;1.55;0.85;;;;;;;-146.27;70.10;45626.06;5089826;28;20111;-73
2024/03/29 09:43:04;;;;;;;1.33;0.50;;;;;;;-146.27;70.05;45588.25;5073589;28;20028;-73
2024/03/29 09:45:36;;;;;;;1.15;0.70;;;;;;;-146.27;71.03;45642.00;5090146;28;20031;-73
2024/03/29 09:48:08;;;;;;;1.15;0.70;;;;;;;-146.27;68.38;45538.50;5102262;28;20030;-73
2024/03/29 09:50:37;;;;;;;1.27;0.57;;;;;;;-146.27;68.47;45608.16;5095531;28;20043;-73
2024/03/29 09:53:05;;;;;;;0.63;0.50;;;;;;;-146.27;67.72;45596.22;5088573;28;20020;-72
2024/03/29 09:55:30;;;;;;;1.02;0.50;;;;;;;-146.27;66.64;45522.56;5084841;28;20099;-73
2024/03/29 09:57:57;;;;;;;1.83;1.10;;;;;;;-146.27;66.89;45536.50;5058001;28;20047;-73
2024/03/29 10:00:23;;;;;;;2.28;0.80;;;;;;;-146.27;67.80;45514.63;5089313;28;20032;-73
2024/03/29 10:02:54;;;;;;;1.23;0.90;;;;;;;-146.27;68.31;45472.81;5089340;28;20073;-72
2024/03/29 10:05:20;;;;;;;1.77;0.82;;;;;;;-146.27;68.78;45506.66;5089117;28;20036;-72
2024/03/29 10:07:46;;;;;;;2.22;1.13;;;;;;;-146.27;68.37;45476.78;5089486;28;20032;-72
2024/03/29 10:10:12;;;;;;;1.88;0.82;;;;;;;-146.27;67.93;45437.00;5087985;28;20107;-73
2024/03/29 10:12:37;;;;;;;0.80;0.80;;;;;;;-146.27;69.63;45518.59;5090491;28;20494;-73
2024/03/29 10:15:14;;;;;;;2.22;0.80;;;;;;;-146.27;71.00;45580.28;5092931;28;20024;-73
2024/03/29 10:17:44;;;;;;;1.35;1.25;;;;;;;-146.27;71.52;45645.97;5087420;28;20478;-73
2024/03/29 10:20:10;;;;;;;4.18;1.40;;;;;;;-146.27;71.63;45580.28;5092661;28;20024;-73
2024/03/29 10:22:40;;;;;;;3.55;1.50;;;;;;;-146.27;69.95;45480.78;5092050;28;20043;-72
2024/03/29 10:25:06;;;;;;;2.80;1.73;;;;;;;-146.27;69.27;45425.06;5088265;28;20021;-68
2024/03/29 10:27:31;;;;;;;5.32;1.42;;;;;;;-146.27;68.50;45444.94;5091458;28;20128;-69
2024/03/29 10:29:57;;;;;;;2.20;1.50;;;;;;;-146.27;70.18;45502.66;5092617;28;20028;-69
2024/03/29 10:32:22;;;;;;;4.50;1.58;;;;;;;-146.27;68.91;45500.69;5074287;28;20039;-67
2024/03/29 10:34:49;;;;;;;7.22;1.77;;;;;;;-146.27;68.59;45528.53;5092549;28;20028;-70
2024/03/29 10:37:16;;;;;;;3.22;1.40;;;;;;;-146.27;68.55;45544.47;5091979;28;20036;-72
2024/03/29 10:39:42;;;;;;;4.35;1.67;;;;;;;-146.27;69.20;45642.00;5087641;28;20107;-69
2024/03/29 10:42:11;;;;;;;1.65;1.27;;;;;;;-146.27;67.04;45624.06;5072172;28;20025;-70
2024/03/29 10:44:39;;;;;;;2.13;1.27;;;;;;;-146.27;66.03;45554.41;5091826;28;20103;-69
2024/03/29 10:47:06;;;;;;;3.33;1.02;;;;;;;-146.27;64.95;45508.63;5091685;28;20085;-69
2024/03/29 10:49:33;;;;;;;1.92;1.05;;;;;;;-146.27;63.45;45552.44;5083235;28;20041;-70
2024/03/29 10:51:59;;;;;;;2.08;0.95;;;;;;;-146.27;62.18;45494.72;5101118;28;20042;-72
2024/03/29 10:54:25;;;;;;;1.45;0.90;;;;;;;-146.27;60.28;45492.72;5101201;28;20023;-71
2024/03/29 10:57:00;;;;;;;2.15;1.02;;;;;;;-146.27;59.23;45433.00;5088180;28;20035;-71
2024/03/29 10:59:44;;;;;;;3.03;1.27;;;;;;;-146.27;59.65;45450.91;5088114;28;20699;-72
2024/03/29 11:02:31;;;;;;;2.83;1.10;;;;;;;-146.27;59.45;45468.84;5086021;28;20051;-73
2024/03/29 11:05:02;;;;;;;4.72;1.40;;;;;;;-146.27;59.48;45460.88;5091214;28;20038;-74
2024/03/29 11:07:28;;;;;;;3.28;1.27;;;;;;;-146.27;58.82;45504.66;5099607;28;20156;-74
2024/03/29 11:10:00;;;;;;;3.13;1.52;;;;;;;-146.27;59.36;45492.72;5089660;28;20400;-73
2024/03/29 11:12:27;;;;;;;4.05;2.00;;;;;;;-146.27;58.64;45504.66;5093568;28;20101;-71
2024/03/29 11:15:12;;;;;;;2.28;1.20;;;;;;;-146.27;58.83;45474.81;5087741;28;20024;-71
2024/03/29 11:17:38;;;;;;;2.45;1.77;;;;;;;-146.27;58.71;45413.09;5091554;28;20114;-73
2024/03/29 11:20:04;;;;;;;2.03;1.40;;;;;;;-146.27;57.55;45470.81;5090405;28;20099;-72